sensor_id;sensor_type;location;lat;lon;timestamp;pressure;altitude;pressure_sealevel;temperature
12430;BMP280;6279;42.192;24.326;2023-07-31T00:01:52;98377.38;;;25.52
12430;BMP280;6279;42.192;24.326;2023-07-31T00:04:17;98383.06;;;25.40
12430;BMP280;6279;42.192;24.326;2023-07-31T00:06:43;98391.03;;;25.35
12430;BMP280;6279;42.192;24.326;2023-07-31T00:09:08;98381.72;;;25.38
12430;BMP280;6279;42.192;24.326;2023-07-31T00:11:34;98391.28;;;25.44
12430;BMP280;6279;42.192;24.326;2023-07-31T00:13:59;98390.47;;;25.43
12430;BMP280;6279;42.192;24.326;2023-07-31T00:16:25;98394.75;;;25.44
12430;BMP280;6279;42.192;24.326;2023-07-31T00:18:50;98398.47;;;25.43
12430;BMP280;6279;42.192;24.326;2023-07-31T00:21:15;98396.84;;;25.47
12430;BMP280;6279;42.192;24.326;2023-07-31T00:23:41;98403.19;;;25.51
12430;BMP280;6279;42.192;24.326;2023-07-31T00:26:06;98398.69;;;25.52
12430;BMP280;6279;42.192;24.326;2023-07-31T00:28:31;98405.09;;;25.46
12430;BMP280;6279;42.192;24.326;2023-07-31T00:30:57;98413.41;;;25.39
12430;BMP280;6279;42.192;24.326;2023-07-31T00:33:22;98415.25;;;25.39
12430;BMP280;6279;42.192;24.326;2023-07-31T00:35:48;98418.97;;;25.43
12430;BMP280;6279;42.192;24.326;2023-07-31T00:38:13;98410.94;;;25.48
12430;BMP280;6279;42.192;24.326;2023-07-31T00:40:39;98415.44;;;25.52
12430;BMP280;6279;42.192;24.326;2023-07-31T00:43:04;98414.88;;;25.55
12430;BMP280;6279;42.192;24.326;2023-07-31T00:45:31;98416.25;;;25.52
12430;BMP280;6279;42.192;24.326;2023-07-31T00:47:56;98424.22;;;25.52
12430;BMP280;6279;42.192;24.326;2023-07-31T00:50:26;98425.81;;;25.53
12430;BMP280;6279;42.192;24.326;2023-07-31T00:52:52;98433.28;;;25.52
12430;BMP280;6279;42.192;24.326;2023-07-31T00:55:17;98438.16;;;25.40
12430;BMP280;6279;42.192;24.326;2023-07-31T00:57:44;98432.56;;;25.36
12430;BMP280;6279;42.192;24.326;2023-07-31T01:00:10;98418.47;;;25.31
12430;BMP280;6279;42.192;24.326;2023-07-31T01:02:36;98430.22;;;25.25
12430;BMP280;6279;42.192;24.326;2023-07-31T01:05:03;98431.78;;;25.31
12430;BMP280;6279;42.192;24.326;2023-07-31T01:10:21;98441.13;;;25.19
12430;BMP280;6279;42.192;24.326;2023-07-31T01:12:47;98436.06;;;25.17
12430;BMP280;6279;42.192;24.326;2023-07-31T01:15:13;98436.63;;;25.14
12430;BMP280;6279;42.192;24.326;2023-07-31T01:17:41;98425.72;;;25.11
12430;BMP280;6279;42.192;24.326;2023-07-31T01:20:23;98427.06;;;25.13
12430;BMP280;6279;42.192;24.326;2023-07-31T01:23:14;98422.03;;;25.02
12430;BMP280;6279;42.192;24.326;2023-07-31T01:25:59;98412.47;;;24.96
12430;BMP280;6279;42.192;24.326;2023-07-31T01:31:21;98405.81;;;25.04
12430;BMP280;6279;42.192;24.326;2023-07-31T01:33:48;98404.78;;;24.95
12430;BMP280;6279;42.192;24.326;2023-07-31T01:36:14;98409.59;;;24.88
12430;BMP280;6279;42.192;24.326;2023-07-31T01:38:40;98400.53;;;24.84
12430;BMP280;6279;42.192;24.326;2023-07-31T01:41:05;98393.41;;;24.75
12430;BMP280;6279;42.192;24.326;2023-07-31T01:43:31;98395.25;;;24.79
12430;BMP280;6279;42.192;24.326;2023-07-31T01:45:56;98401.09;;;24.86
12430;BMP280;6279;42.192;24.326;2023-07-31T01:48:21;98408.00;;;24.87
12430;BMP280;6279;42.192;24.326;2023-07-31T01:50:47;98408.25;;;24.90
12430;BMP280;6279;42.192;24.326;2023-07-31T01:53:12;98402.44;;;24.74
12430;BMP280;6279;42.192;24.326;2023-07-31T01:55:38;98402.47;;;24.69
12430;BMP280;6279;42.192;24.326;2023-07-31T01:58:04;98408.03;;;24.58
12430;BMP280;6279;42.192;24.326;2023-07-31T02:00:29;98414.94;;;24.59
12430;BMP280;6279;42.192;24.326;2023-07-31T02:02:54;98401.91;;;24.57
12430;BMP280;6279;42.192;24.326;2023-07-31T02:05:20;98404.31;;;24.59
12430;BMP280;6279;42.192;24.326;2023-07-31T02:07:45;98404.31;;;24.59
12430;BMP280;6279;42.192;24.326;2023-07-31T02:10:11;98403.53;;;24.53
12430;BMP280;6279;42.192;24.326;2023-07-31T02:12:36;98410.16;;;24.46
12430;BMP280;6279;42.192;24.326;2023-07-31T02:15:02;98413.63;;;24.41
12430;BMP280;6279;42.192;24.326;2023-07-31T02:17:28;98415.50;;;24.41
12430;BMP280;6279;42.192;24.326;2023-07-31T02:19:54;98412.84;;;24.41
12430;BMP280;6279;42.192;24.326;2023-07-31T02:22:20;98413.38;;;24.38
12430;BMP280;6279;42.192;24.326;2023-07-31T02:24:45;98413.13;;;24.35
12430;BMP280;6279;42.192;24.326;2023-07-31T02:27:10;98418.97;;;24.32
12430;BMP280;6279;42.192;24.326;2023-07-31T02:29:36;98413.91;;;24.25
12430;BMP280;6279;42.192;24.326;2023-07-31T02:32:02;98414.72;;;24.11
12430;BMP280;6279;42.192;24.326;2023-07-31T02:34:30;98414.69;;;23.97
12430;BMP280;6279;42.192;24.326;2023-07-31T02:36:55;98414.34;;;23.59
12430;BMP280;6279;42.192;24.326;2023-07-31T02:39:21;98420.56;;;23.19
12430;BMP280;6279;42.192;24.326;2023-07-31T02:41:46;98421.63;;;23.13
12430;BMP280;6279;42.192;24.326;2023-07-31T02:44:12;98402.72;;;22.95
12430;BMP280;6279;42.192;24.326;2023-07-31T02:46:39;98404.56;;;22.89
12430;BMP280;6279;42.192;24.326;2023-07-31T02:49:05;98406.09;;;22.86
12430;BMP280;6279;42.192;24.326;2023-07-31T02:51:30;98403.44;;;22.86
12430;BMP280;6279;42.192;24.326;2023-07-31T02:53:56;98393.97;;;23.04
12430;BMP280;6279;42.192;24.326;2023-07-31T02:56:21;98389.78;;;23.13
12430;BMP280;6279;42.192;24.326;2023-07-31T02:58:47;98405.22;;;23.26
12430;BMP280;6279;42.192;24.326;2023-07-31T03:01:12;98412.06;;;23.17
12430;BMP280;6279;42.192;24.326;2023-07-31T03:03:38;98416.38;;;23.32
12430;BMP280;6279;42.192;24.326;2023-07-31T03:06:03;98412.75;;;23.48
12430;BMP280;6279;42.192;24.326;2023-07-31T03:08:28;98413.00;;;23.47
12430;BMP280;6279;42.192;24.326;2023-07-31T03:10:54;98415.94;;;23.55
12430;BMP280;6279;42.192;24.326;2023-07-31T03:13:19;98411.97;;;23.52
12430;BMP280;6279;42.192;24.326;2023-07-31T03:15:44;98417.53;;;23.56
12430;BMP280;6279;42.192;24.326;2023-07-31T03:18:10;98423.13;;;23.59
12430;BMP280;6279;42.192;24.326;2023-07-31T03:20:35;98422.88;;;23.61
12430;BMP280;6279;42.192;24.326;2023-07-31T03:23:01;98433.25;;;23.67
12430;BMP280;6279;42.192;24.326;2023-07-31T03:25:26;98436.94;;;23.71
12430;BMP280;6279;42.192;24.326;2023-07-31T03:27:51;98448.09;;;23.68
12430;BMP280;6279;42.192;24.326;2023-07-31T03:30:17;98452.56;;;23.48
12430;BMP280;6279;42.192;24.326;2023-07-31T03:32:42;98450.44;;;23.50
12430;BMP280;6279;42.192;24.326;2023-07-31T03:35:08;98443.28;;;23.46
12430;BMP280;6279;42.192;24.326;2023-07-31T03:37:33;98458.41;;;23.45
12430;BMP280;6279;42.192;24.326;2023-07-31T03:39:58;98463.19;;;23.53
12430;BMP280;6279;42.192;24.326;2023-07-31T03:42:24;98470.06;;;23.44
12430;BMP280;6279;42.192;24.326;2023-07-31T03:44:49;98466.63;;;23.49
12430;BMP280;6279;42.192;24.326;2023-07-31T03:47:15;98468.22;;;23.45
12430;BMP280;6279;42.192;24.326;2023-07-31T03:49:40;98462.81;;;23.35
12430;BMP280;6279;42.192;24.326;2023-07-31T03:52:06;98474.31;;;23.45
12430;BMP280;6279;42.192;24.326;2023-07-31T03:54:31;98470.34;;;23.48
12430;BMP280;6279;42.192;24.326;2023-07-31T03:56:57;98478.06;;;23.54
12430;BMP280;6279;42.192;24.326;2023-07-31T03:59:22;98474.88;;;23.57
12430;BMP280;6279;42.192;24.326;2023-07-31T04:01:48;98486.28;;;23.52
12430;BMP280;6279;42.192;24.326;2023-07-31T04:04:13;98479.13;;;23.58
12430;BMP280;6279;42.192;24.326;2023-07-31T04:06:38;98487.94;;;23.68
12430;BMP280;6279;42.192;24.326;2023-07-31T04:09:04;98484.47;;;23.68
12430;BMP280;6279;42.192;24.326;2023-07-31T04:11:29;98481.56;;;23.69
12430;BMP280;6279;42.192;24.326;2023-07-31T04:13:55;98478.69;;;23.80
12430;BMP280;6279;42.192;24.326;2023-07-31T04:16:20;98476.28;;;23.89
12430;BMP280;6279;42.192;24.326;2023-07-31T04:18:45;98477.09;;;23.94
12430;BMP280;6279;42.192;24.326;2023-07-31T04:21:11;98481.06;;;23.92
12430;BMP280;6279;42.192;24.326;2023-07-31T04:23:36;98471.78;;;23.94
12430;BMP280;6279;42.192;24.326;2023-07-31T04:26:02;98476.56;;;23.92
12430;BMP280;6279;42.192;24.326;2023-07-31T04:28:27;98474.75;;;24.07
12430;BMP280;6279;42.192;24.326;2023-07-31T04:30:55;98473.19;;;24.21
12430;BMP280;6279;42.192;24.326;2023-07-31T04:33:21;98472.63;;;24.09
12430;BMP280;6279;42.192;24.326;2023-07-31T04:35:51;98478.94;;;23.89
12430;BMP280;6279;42.192;24.326;2023-07-31T04:38:18;98489.00;;;23.62
12430;BMP280;6279;42.192;24.326;2023-07-31T04:40:43;98486.53;;;23.51
12430;BMP280;6279;42.192;24.326;2023-07-31T04:43:09;98497.06;;;23.31
12430;BMP280;6279;42.192;24.326;2023-07-31T04:45:34;98494.91;;;23.29
12430;BMP280;6279;42.192;24.326;2023-07-31T04:47:59;98492.59;;;23.37
12430;BMP280;6279;42.192;24.326;2023-07-31T04:50:25;98502.97;;;23.43
12430;BMP280;6279;42.192;24.326;2023-07-31T04:52:50;98499.03;;;23.51
12430;BMP280;6279;42.192;24.326;2023-07-31T04:55:16;98500.47;;;23.82
12430;BMP280;6279;42.192;24.326;2023-07-31T04:57:41;98500.00;;;24.10
12430;BMP280;6279;42.192;24.326;2023-07-31T05:00:07;98486.75;;;24.39
12430;BMP280;6279;42.192;24.326;2023-07-31T05:02:32;98489.41;;;24.73
12430;BMP280;6279;42.192;24.326;2023-07-31T05:04:58;98484.50;;;25.24
12430;BMP280;6279;42.192;24.326;2023-07-31T05:07:23;98484.59;;;25.72
12430;BMP280;6279;42.192;24.326;2023-07-31T05:09:48;98483.22;;;26.21
12430;BMP280;6279;42.192;24.326;2023-07-31T05:12:14;98475.72;;;26.61
12430;BMP280;6279;42.192;24.326;2023-07-31T05:14:39;98474.16;;;26.88
12430;BMP280;6279;42.192;24.326;2023-07-31T05:17:05;98472.69;;;27.46
12430;BMP280;6279;42.192;24.326;2023-07-31T05:19:30;98485.78;;;28.07
12430;BMP280;6279;42.192;24.326;2023-07-31T05:21:56;98470.00;;;28.73
12430;BMP280;6279;42.192;24.326;2023-07-31T05:24:21;98480.63;;;28.78
12430;BMP280;6279;42.192;24.326;2023-07-31T05:26:47;98472.50;;;29.27
12430;BMP280;6279;42.192;24.326;2023-07-31T05:29:12;98474.19;;;29.50
12430;BMP280;6279;42.192;24.326;2023-07-31T05:31:38;98482.41;;;29.66
12430;BMP280;6279;42.192;24.326;2023-07-31T05:34:04;98482.94;;;29.68
12430;BMP280;6279;42.192;24.326;2023-07-31T05:36:29;98475.69;;;29.69
12430;BMP280;6279;42.192;24.326;2023-07-31T05:38:54;98482.22;;;29.50
12430;BMP280;6279;42.192;24.326;2023-07-31T05:41:20;98475.94;;;29.80
12430;BMP280;6279;42.192;24.326;2023-07-31T05:43:45;98473.25;;;30.07
12430;BMP280;6279;42.192;24.326;2023-07-31T05:46:11;98479.91;;;29.83
12430;BMP280;6279;42.192;24.326;2023-07-31T05:48:37;98467.69;;;29.90
12430;BMP280;6279;42.192;24.326;2023-07-31T05:51:03;98474.03;;;30.29
12430;BMP280;6279;42.192;24.326;2023-07-31T05:53:28;98468.41;;;30.17
12430;BMP280;6279;42.192;24.326;2023-07-31T05:55:53;98472.59;;;30.44
12430;BMP280;6279;42.192;24.326;2023-07-31T05:58:19;98469.28;;;30.47
12430;BMP280;6279;42.192;24.326;2023-07-31T06:00:44;98479.19;;;30.82
12430;BMP280;6279;42.192;24.326;2023-07-31T06:03:10;98474.47;;;30.87
12430;BMP280;6279;42.192;24.326;2023-07-31T06:05:35;98474.63;;;31.12
12430;BMP280;6279;42.192;24.326;2023-07-31T06:08:00;98481.47;;;31.26
12430;BMP280;6279;42.192;24.326;2023-07-31T06:10:26;98483.13;;;31.06
12430;BMP280;6279;42.192;24.326;2023-07-31T06:12:51;98482.38;;;30.62
12430;BMP280;6279;42.192;24.326;2023-07-31T06:15:17;98486.19;;;30.48
12430;BMP280;6279;42.192;24.326;2023-07-31T06:17:44;98483.50;;;30.48
12430;BMP280;6279;42.192;24.326;2023-07-31T06:20:10;98481.69;;;30.78
12430;BMP280;6279;42.192;24.326;2023-07-31T06:22:35;98480.41;;;31.35
12430;BMP280;6279;42.192;24.326;2023-07-31T06:25:00;98479.13;;;31.79
12430;BMP280;6279;42.192;24.326;2023-07-31T06:27:26;98473.16;;;32.49
12430;BMP280;6279;42.192;24.326;2023-07-31T06:29:51;98479.03;;;32.26
12430;BMP280;6279;42.192;24.326;2023-07-31T06:32:17;98479.28;;;31.74
12430;BMP280;6279;42.192;24.326;2023-07-31T06:34:42;98479.56;;;31.27
12430;BMP280;6279;42.192;24.326;2023-07-31T06:37:07;98478.03;;;31.34
12430;BMP280;6279;42.192;24.326;2023-07-31T06:39:33;98463.59;;;31.60
12430;BMP280;6279;42.192;24.326;2023-07-31T06:41:58;98470.00;;;32.14
12430;BMP280;6279;42.192;24.326;2023-07-31T06:44:24;98466.81;;;32.70
12430;BMP280;6279;42.192;24.326;2023-07-31T06:46:49;98467.03;;;33.18
12430;BMP280;6279;42.192;24.326;2023-07-31T06:49:14;98468.66;;;33.39
12430;BMP280;6279;42.192;24.326;2023-07-31T06:51:40;98471.53;;;33.71
12430;BMP280;6279;42.192;24.326;2023-07-31T06:54:07;98483.00;;;33.31
12430;BMP280;6279;42.192;24.326;2023-07-31T06:56:33;98493.94;;;32.23
12430;BMP280;6279;42.192;24.326;2023-07-31T06:58:58;98491.22;;;31.52
12430;BMP280;6279;42.192;24.326;2023-07-31T07:01:23;98488.75;;;31.26
12430;BMP280;6279;42.192;24.326;2023-07-31T07:03:49;98485.50;;;30.85
12430;BMP280;6279;42.192;24.326;2023-07-31T07:06:16;98494.03;;;31.09
12430;BMP280;6279;42.192;24.326;2023-07-31T07:08:42;98491.50;;;31.42
12430;BMP280;6279;42.192;24.326;2023-07-31T07:11:08;98488.13;;;31.28
12430;BMP280;6279;42.192;24.326;2023-07-31T07:13:33;98486.25;;;31.29
12430;BMP280;6279;42.192;24.326;2023-07-31T07:15:59;98488.75;;;31.26
12430;BMP280;6279;42.192;24.326;2023-07-31T07:18:24;98489.69;;;31.00
12430;BMP280;6279;42.192;24.326;2023-07-31T07:20:51;98485.63;;;31.40
12430;BMP280;6279;42.192;24.326;2023-07-31T07:23:17;98480.16;;;32.25
12430;BMP280;6279;42.192;24.326;2023-07-31T07:25:43;98487.16;;;33.21
12430;BMP280;6279;42.192;24.326;2023-07-31T07:28:09;98478.63;;;34.44
12430;BMP280;6279;42.192;24.326;2023-07-31T07:30:34;98483.53;;;35.26
12430;BMP280;6279;42.192;24.326;2023-07-31T07:33:00;98481.44;;;35.54
12430;BMP280;6279;42.192;24.326;2023-07-31T07:35:25;98495.41;;;35.92
12430;BMP280;6279;42.192;24.326;2023-07-31T07:37:50;98485.72;;;36.41
12430;BMP280;6279;42.192;24.326;2023-07-31T07:40:16;98494.34;;;36.58
12430;BMP280;6279;42.192;24.326;2023-07-31T07:42:41;98486.88;;;37.09
12430;BMP280;6279;42.192;24.326;2023-07-31T07:45:07;98490.25;;;37.63
12430;BMP280;6279;42.192;24.326;2023-07-31T07:47:33;98492.47;;;37.58
12430;BMP280;6279;42.192;24.326;2023-07-31T07:49:58;98483.94;;;37.75
12430;BMP280;6279;42.192;24.326;2023-07-31T07:52:23;98477.97;;;38.18
12430;BMP280;6279;42.192;24.326;2023-07-31T07:54:49;98490.53;;;37.58
12430;BMP280;6279;42.192;24.326;2023-07-31T07:57:15;98475.06;;;37.93
12430;BMP280;6279;42.192;24.326;2023-07-31T07:59:41;98476.38;;;38.51
12430;BMP280;6279;42.192;24.326;2023-07-31T08:02:06;98478.06;;;38.59
12430;BMP280;6279;42.192;24.326;2023-07-31T08:04:32;98474.13;;;38.93
12430;BMP280;6279;42.192;24.326;2023-07-31T08:06:57;98467.75;;;39.27
12430;BMP280;6279;42.192;24.326;2023-07-31T08:09:22;98471.88;;;39.65
12430;BMP280;6279;42.192;24.326;2023-07-31T08:11:48;98465.56;;;40.37
12430;BMP280;6279;42.192;24.326;2023-07-31T08:14:13;98460.94;;;41.06
12430;BMP280;6279;42.192;24.326;2023-07-31T08:16:39;98460.34;;;40.87
12430;BMP280;6279;42.192;24.326;2023-07-31T08:19:04;98470.88;;;40.23
12430;BMP280;6279;42.192;24.326;2023-07-31T08:21:30;98462.94;;;40.15
12430;BMP280;6279;42.192;24.326;2023-07-31T08:23:56;98459.00;;;40.74
12430;BMP280;6279;42.192;24.326;2023-07-31T08:26:21;98457.53;;;40.80
12430;BMP280;6279;42.192;24.326;2023-07-31T08:28:47;98447.34;;;41.12
12430;BMP280;6279;42.192;24.326;2023-07-31T08:31:12;98452.09;;;40.80
12430;BMP280;6279;42.192;24.326;2023-07-31T08:33:38;98452.63;;;41.77
12430;BMP280;6279;42.192;24.326;2023-07-31T08:36:04;98456.94;;;42.44
12430;BMP280;6279;42.192;24.326;2023-07-31T08:38:30;98459.84;;;42.99
12430;BMP280;6279;42.192;24.326;2023-07-31T08:40:58;98446.59;;;43.77
12430;BMP280;6279;42.192;24.326;2023-07-31T08:43:27;98454.81;;;43.18
12430;BMP280;6279;42.192;24.326;2023-07-31T08:45:53;98451.28;;;44.00
12430;BMP280;6279;42.192;24.326;2023-07-31T08:48:20;98456.72;;;44.10
12430;BMP280;6279;42.192;24.326;2023-07-31T08:50:46;98445.28;;;44.32
12430;BMP280;6279;42.192;24.326;2023-07-31T08:53:11;98450.91;;;43.19
12430;BMP280;6279;42.192;24.326;2023-07-31T08:55:40;98446.13;;;44.09
12430;BMP280;6279;42.192;24.326;2023-07-31T08:58:06;98445.06;;;44.80
12430;BMP280;6279;42.192;24.326;2023-07-31T09:00:35;98434.81;;;45.48
12430;BMP280;6279;42.192;24.326;2023-07-31T09:03:27;98433.78;;;45.28
12430;BMP280;6279;42.192;24.326;2023-07-31T09:05:55;98435.03;;;46.06
12430;BMP280;6279;42.192;24.326;2023-07-31T09:08:21;98426.56;;;46.56
12430;BMP280;6279;42.192;24.326;2023-07-31T09:10:47;98433.09;;;46.36
12430;BMP280;6279;42.192;24.326;2023-07-31T09:13:15;98422.44;;;46.71
12430;BMP280;6279;42.192;24.326;2023-07-31T09:15:43;98425.59;;;46.40
12430;BMP280;6279;42.192;24.326;2023-07-31T09:18:09;98421.53;;;47.07
12430;BMP280;6279;42.192;24.326;2023-07-31T09:20:35;98429.13;;;46.41
12430;BMP280;6279;42.192;24.326;2023-07-31T09:23:11;98420.66;;;47.36
12430;BMP280;6279;42.192;24.326;2023-07-31T09:25:38;98417.75;;;48.29
12430;BMP280;6279;42.192;24.326;2023-07-31T09:28:06;98434.63;;;48.88
12430;BMP280;6279;42.192;24.326;2023-07-31T09:30:45;98418.59;;;49.30
12430;BMP280;6279;42.192;24.326;2023-07-31T09:33:12;98411.22;;;48.58
12430;BMP280;6279;42.192;24.326;2023-07-31T09:35:37;98415.97;;;47.10
12430;BMP280;6279;42.192;24.326;2023-07-31T09:38:04;98418.03;;;47.51
12430;BMP280;6279;42.192;24.326;2023-07-31T09:40:32;98414.06;;;47.52
12430;BMP280;6279;42.192;24.326;2023-07-31T09:43:06;98407.34;;;47.31
12430;BMP280;6279;42.192;24.326;2023-07-31T09:45:36;98413.34;;;47.93
12430;BMP280;6279;42.192;24.326;2023-07-31T09:48:02;98400.22;;;48.73
12430;BMP280;6279;42.192;24.326;2023-07-31T09:50:29;98397.00;;;49.25
12430;BMP280;6279;42.192;24.326;2023-07-31T09:52:54;98392.59;;;49.12
12430;BMP280;6279;42.192;24.326;2023-07-31T09:55:20;98394.25;;;48.21
12430;BMP280;6279;42.192;24.326;2023-07-31T09:57:47;98394.50;;;47.88
12430;BMP280;6279;42.192;24.326;2023-07-31T10:00:15;98391.69;;;46.47
12430;BMP280;6279;42.192;24.326;2023-07-31T10:02:40;98398.72;;;44.12
12430;BMP280;6279;42.192;24.326;2023-07-31T10:05:07;98394.44;;;41.73
12430;BMP280;6279;42.192;24.326;2023-07-31T10:07:37;98398.22;;;41.58
12430;BMP280;6279;42.192;24.326;2023-07-31T10:10:06;98379.34;;;40.94
12430;BMP280;6279;42.192;24.326;2023-07-31T10:12:33;98383.63;;;41.34
12430;BMP280;6279;42.192;24.326;2023-07-31T10:15:00;98390.75;;;39.74
12430;BMP280;6279;42.192;24.326;2023-07-31T10:17:26;98380.91;;;39.40
12430;BMP280;6279;42.192;24.326;2023-07-31T10:19:53;98368.63;;;40.75
12430;BMP280;6279;42.192;24.326;2023-07-31T10:22:21;98375.00;;;43.27
12430;BMP280;6279;42.192;24.326;2023-07-31T10:24:48;98366.72;;;45.22
12430;BMP280;6279;42.192;24.326;2023-07-31T10:27:13;98359.91;;;45.80
12430;BMP280;6279;42.192;24.326;2023-07-31T10:29:40;98356.06;;;46.92
12430;BMP280;6279;42.192;24.326;2023-07-31T10:32:07;98352.66;;;47.52
12430;BMP280;6279;42.192;24.326;2023-07-31T10:34:35;98353.88;;;47.51
12430;BMP280;6279;42.192;24.326;2023-07-31T10:42:38;98350.84;;;44.40
12430;BMP280;6279;42.192;24.326;2023-07-31T10:45:09;98357.00;;;43.63
12430;BMP280;6279;42.192;24.326;2023-07-31T10:47:44;98338.84;;;44.77
12430;BMP280;6279;42.192;24.326;2023-07-31T10:50:21;98329.22;;;44.49
12430;BMP280;6279;42.192;24.326;2023-07-31T10:52:51;98340.97;;;43.00
12430;BMP280;6279;42.192;24.326;2023-07-31T10:58:06;98338.06;;;41.45
12430;BMP280;6279;42.192;24.326;2023-07-31T11:00:32;98320.13;;;42.24
12430;BMP280;6279;42.192;24.326;2023-07-31T11:03:04;98332.69;;;42.42
12430;BMP280;6279;42.192;24.326;2023-07-31T11:05:50;98325.31;;;43.52
12430;BMP280;6279;42.192;24.326;2023-07-31T11:08:23;98339.16;;;44.16
12430;BMP280;6279;42.192;24.326;2023-07-31T11:13:46;98327.50;;;44.05
12430;BMP280;6279;42.192;24.326;2023-07-31T11:16:15;98322.13;;;43.71
12430;BMP280;6279;42.192;24.326;2023-07-31T11:18:46;98320.19;;;42.55
12430;BMP280;6279;42.192;24.326;2023-07-31T11:21:20;98318.31;;;42.83
12430;BMP280;6279;42.192;24.326;2023-07-31T11:23:47;98328.28;;;42.10
12430;BMP280;6279;42.192;24.326;2023-07-31T11:26:12;98333.50;;;41.66
12430;BMP280;6279;42.192;24.326;2023-07-31T11:28:38;98326.03;;;41.53
12430;BMP280;6279;42.192;24.326;2023-07-31T11:31:04;98314.84;;;41.78
12430;BMP280;6279;42.192;24.326;2023-07-31T11:33:30;98315.94;;;41.63
12430;BMP280;6279;42.192;24.326;2023-07-31T11:35:56;98312.50;;;40.74
12430;BMP280;6279;42.192;24.326;2023-07-31T11:38:23;98318.66;;;38.91
12430;BMP280;6279;42.192;24.326;2023-07-31T11:40:49;98309.19;;;38.41
12430;BMP280;6279;42.192;24.326;2023-07-31T11:43:15;98311.16;;;39.07
12430;BMP280;6279;42.192;24.326;2023-07-31T11:45:48;98308.34;;;39.80
12430;BMP280;6279;42.192;24.326;2023-07-31T11:48:24;98304.06;;;40.08
12430;BMP280;6279;42.192;24.326;2023-07-31T11:50:52;98297.38;;;40.41
12430;BMP280;6279;42.192;24.326;2023-07-31T11:53:26;98293.91;;;40.83
12430;BMP280;6279;42.192;24.326;2023-07-31T11:55:54;98288.66;;;41.10
12430;BMP280;6279;42.192;24.326;2023-07-31T11:58:20;98282.66;;;41.41
12430;BMP280;6279;42.192;24.326;2023-07-31T12:00:47;98281.16;;;41.57
12430;BMP280;6279;42.192;24.326;2023-07-31T12:03:12;98274.06;;;41.39
12430;BMP280;6279;42.192;24.326;2023-07-31T12:05:38;98286.84;;;40.40
12430;BMP280;6279;42.192;24.326;2023-07-31T12:08:09;98292.13;;;39.07
12430;BMP280;6279;42.192;24.326;2023-07-31T12:10:35;98283.38;;;38.73
12430;BMP280;6279;42.192;24.326;2023-07-31T12:13:04;98286.69;;;39.32
12430;BMP280;6279;42.192;24.326;2023-07-31T12:15:41;98274.84;;;39.47
12430;BMP280;6279;42.192;24.326;2023-07-31T12:18:11;98271.91;;;39.91
12430;BMP280;6279;42.192;24.326;2023-07-31T12:20:44;98265.78;;;40.01
12430;BMP280;6279;42.192;24.326;2023-07-31T12:23:14;98273.50;;;39.63
12430;BMP280;6279;42.192;24.326;2023-07-31T12:25:40;98274.19;;;39.57
12430;BMP280;6279;42.192;24.326;2023-07-31T12:28:06;98261.00;;;39.59
12430;BMP280;6279;42.192;24.326;2023-07-31T12:30:37;98266.16;;;39.67
12430;BMP280;6279;42.192;24.326;2023-07-31T12:33:23;98265.63;;;39.55
12430;BMP280;6279;42.192;24.326;2023-07-31T12:35:48;98253.44;;;39.46
12430;BMP280;6279;42.192;24.326;2023-07-31T12:38:14;98271.59;;;38.87
12430;BMP280;6279;42.192;24.326;2023-07-31T12:40:40;98252.03;;;37.94
12430;BMP280;6279;42.192;24.326;2023-07-31T12:43:09;98253.03;;;37.86
12430;BMP280;6279;42.192;24.326;2023-07-31T12:45:34;98256.13;;;37.66
12430;BMP280;6279;42.192;24.326;2023-07-31T12:48:00;98240.06;;;37.24
12430;BMP280;6279;42.192;24.326;2023-07-31T12:50:26;98235.03;;;37.41
12430;BMP280;6279;42.192;24.326;2023-07-31T12:52:56;98239.47;;;37.68
12430;BMP280;6279;42.192;24.326;2023-07-31T12:55:22;98230.72;;;37.96
12430;BMP280;6279;42.192;24.326;2023-07-31T12:57:48;98233.66;;;37.88
12430;BMP280;6279;42.192;24.326;2023-07-31T13:00:14;98237.81;;;37.82
12430;BMP280;6279;42.192;24.326;2023-07-31T13:02:40;98219.38;;;37.72
12430;BMP280;6279;42.192;24.326;2023-07-31T13:05:05;98225.38;;;37.25
12430;BMP280;6279;42.192;24.326;2023-07-31T13:07:31;98221.09;;;37.24
12430;BMP280;6279;42.192;24.326;2023-07-31T13:09:56;98219.66;;;37.30
12430;BMP280;6279;42.192;24.326;2023-07-31T13:12:22;98219.53;;;37.42
12430;BMP280;6279;42.192;24.326;2023-07-31T13:14:47;98219.38;;;37.72
12430;BMP280;6279;42.192;24.326;2023-07-31T13:17:12;98229.34;;;37.65
12430;BMP280;6279;42.192;24.326;2023-07-31T13:19:38;98235.47;;;37.62
12430;BMP280;6279;42.192;24.326;2023-07-31T13:22:03;98226.88;;;37.97
12430;BMP280;6279;42.192;24.326;2023-07-31T13:24:29;98227.41;;;37.65
12430;BMP280;6279;42.192;24.326;2023-07-31T13:26:55;98218.31;;;37.06
12430;BMP280;6279;42.192;24.326;2023-07-31T13:29:20;98218.28;;;36.87
12430;BMP280;6279;42.192;24.326;2023-07-31T13:31:47;98206.31;;;36.88
12430;BMP280;6279;42.192;24.326;2023-07-31T13:34:12;98207.53;;;37.24
12430;BMP280;6279;42.192;24.326;2023-07-31T13:36:38;98202.47;;;37.78
12430;BMP280;6279;42.192;24.326;2023-07-31T13:39:03;98204.94;;;37.87
12430;BMP280;6279;42.192;24.326;2023-07-31T13:41:28;98211.78;;;37.59
12430;BMP280;6279;42.192;24.326;2023-07-31T13:43:54;98198.81;;;37.15
12430;BMP280;6279;42.192;24.326;2023-07-31T13:46:19;98189.91;;;37.00
12430;BMP280;6279;42.192;24.326;2023-07-31T13:48:45;98193.44;;;37.19
12430;BMP280;6279;42.192;24.326;2023-07-31T13:51:10;98194.88;;;37.31
12430;BMP280;6279;42.192;24.326;2023-07-31T13:53:35;98196.75;;;37.65
12430;BMP280;6279;42.192;24.326;2023-07-31T13:56:01;98200.06;;;37.96
12430;BMP280;6279;42.192;24.326;2023-07-31T13:58:26;98195.75;;;38.13
12430;BMP280;6279;42.192;24.326;2023-07-31T14:00:52;98188.06;;;38.41
12430;BMP280;6279;42.192;24.326;2023-07-31T14:03:17;98192.94;;;38.50
12430;BMP280;6279;42.192;24.326;2023-07-31T14:05:43;98196.38;;;38.47
12430;BMP280;6279;42.192;24.326;2023-07-31T14:08:08;98192.47;;;37.64
12430;BMP280;6279;42.192;24.326;2023-07-31T14:10:33;98197.91;;;37.11
12430;BMP280;6279;42.192;24.326;2023-07-31T14:12:59;98195.94;;;36.75
12430;BMP280;6279;42.192;24.326;2023-07-31T14:15:24;98197.50;;;36.61
12430;BMP280;6279;42.192;24.326;2023-07-31T14:17:49;98205.88;;;36.86
12430;BMP280;6279;42.192;24.326;2023-07-31T14:20:15;98193.19;;;36.90
12430;BMP280;6279;42.192;24.326;2023-07-31T14:22:40;98192.97;;;36.98